sensor_id;sensor_type;location;lat;lon;timestamp;P1;durP1;ratioP1;P2;durP2;ratioP2
61702;SDS011;47622;47.726;3.298;2023-12-14T00:01:39;10.68;;;5.55;;
61702;SDS011;47622;47.726;3.298;2023-12-14T00:04:06;6.45;;;4.90;;
61702;SDS011;47622;47.726;3.298;2023-12-14T00:06:32;6.95;;;4.95;;
61702;SDS011;47622;47.726;3.298;2023-12-14T00:08:58;7.82;;;4.65;;
61702;SDS011;47622;47.726;3.298;2023-12-14T00:11:23;8.43;;;4.47;;
61702;SDS011;47622;47.726;3.298;2023-12-14T00:13:49;12.57;;;4.30;;
61702;SDS011;47622;47.726;3.298;2023-12-14T00:16:15;7.65;;;4.20;;
61702;SDS011;47622;47.726;3.298;2023-12-14T00:18:40;9.32;;;4.75;;
61702;SDS011;47622;47.726;3.298;2023-12-14T00:21:06;10.98;;;4.40;;
61702;SDS011;47622;47.726;3.298;2023-12-14T00:23:33;8.20;;;3.80;;
61702;SDS011;47622;47.726;3.298;2023-12-14T00:25:59;7.38;;;3.70;;
61702;SDS011;47622;47.726;3.298;2023-12-14T00:28:24;7.05;;;4.10;;
61702;SDS011;47622;47.726;3.298;2023-12-14T00:30:50;10.93;;;4.05;;
61702;SDS011;47622;47.726;3.298;2023-12-14T00:33:15;10.95;;;4.68;;
61702;SDS011;47622;47.726;3.298;2023-12-14T00:35:41;10.07;;;4.32;;
61702;SDS011;47622;47.726;3.298;2023-12-14T00:38:06;7.25;;;4.78;;
61702;SDS011;47622;47.726;3.298;2023-12-14T00:40:32;9.90;;;4.40;;
61702;SDS011;47622;47.726;3.298;2023-12-14T00:42:58;6.00;;;3.72;;
61702;SDS011;47622;47.726;3.298;2023-12-14T00:45:23;9.25;;;4.32;;
61702;SDS011;47622;47.726;3.298;2023-12-14T00:47:48;7.05;;;4.18;;
61702;SDS011;47622;47.726;3.298;2023-12-14T00:50:14;11.35;;;3.80;;
61702;SDS011;47622;47.726;3.298;2023-12-14T00:52:40;6.97;;;3.47;;
61702;SDS011;47622;47.726;3.298;2023-12-14T00:55:05;5.95;;;4.60;;
61702;SDS011;47622;47.726;3.298;2023-12-14T00:57:31;7.35;;;3.60;;
61702;SDS011;47622;47.726;3.298;2023-12-14T00:59:56;7.45;;;3.97;;
61702;SDS011;47622;47.726;3.298;2023-12-14T01:02:22;5.28;;;3.97;;
61702;SDS011;47622;47.726;3.298;2023-12-14T01:04:47;5.20;;;3.38;;
61702;SDS011;47622;47.726;3.298;2023-12-14T01:07:13;6.95;;;3.60;;
61702;SDS011;47622;47.726;3.298;2023-12-14T01:09:38;11.57;;;4.00;;
61702;SDS011;47622;47.726;3.298;2023-12-14T01:12:04;6.95;;;3.95;;
61702;SDS011;47622;47.726;3.298;2023-12-14T01:14:30;8.23;;;4.18;;
61702;SDS011;47622;47.726;3.298;2023-12-14T01:16:55;5.40;;;3.30;;
61702;SDS011;47622;47.726;3.298;2023-12-14T01:19:21;7.75;;;4.03;;
61702;SDS011;47622;47.726;3.298;2023-12-14T01:21:46;9.48;;;3.58;;
61702;SDS011;47622;47.726;3.298;2023-12-14T01:24:12;8.77;;;3.67;;
61702;SDS011;47622;47.726;3.298;2023-12-14T01:26:37;9.05;;;3.60;;
61702;SDS011;47622;47.726;3.298;2023-12-14T01:29:03;7.82;;;3.65;;
61702;SDS011;47622;47.726;3.298;2023-12-14T01:31:29;6.75;;;3.88;;
61702;SDS011;47622;47.726;3.298;2023-12-14T01:33:54;7.32;;;3.50;;
61702;SDS011;47622;47.726;3.298;2023-12-14T01:36:20;5.80;;;3.42;;
61702;SDS011;47622;47.726;3.298;2023-12-14T01:38:50;6.03;;;3.50;;
61702;SDS011;47622;47.726;3.298;2023-12-14T01:41:16;5.20;;;2.90;;
61702;SDS011;47622;47.726;3.298;2023-12-14T01:43:41;9.20;;;3.40;;
61702;SDS011;47622;47.726;3.298;2023-12-14T01:46:07;4.60;;;3.42;;
61702;SDS011;47622;47.726;3.298;2023-12-14T01:48:33;7.13;;;3.80;;
61702;SDS011;47622;47.726;3.298;2023-12-14T01:50:58;6.10;;;4.05;;
61702;SDS011;47622;47.726;3.298;2023-12-14T01:53:24;9.30;;;3.75;;
61702;SDS011;47622;47.726;3.298;2023-12-14T01:55:49;4.82;;;3.42;;
61702;SDS011;47622;47.726;3.298;2023-12-14T01:58:15;6.70;;;4.03;;
61702;SDS011;47622;47.726;3.298;2023-12-14T02:03:23;5.40;;;3.50;;
61702;SDS011;47622;47.726;3.298;2023-12-14T02:05:48;5.53;;;3.92;;
61702;SDS011;47622;47.726;3.298;2023-12-14T02:08:14;5.78;;;4.30;;
61702;SDS011;47622;47.726;3.298;2023-12-14T02:10:39;4.75;;;3.85;;
61702;SDS011;47622;47.726;3.298;2023-12-14T02:13:05;5.82;;;3.42;;
61702;SDS011;47622;47.726;3.298;2023-12-14T02:15:30;4.10;;;3.25;;
61702;SDS011;47622;47.726;3.298;2023-12-14T02:17:56;4.93;;;2.90;;
61702;SDS011;47622;47.726;3.298;2023-12-14T02:20:21;4.38;;;3.05;;
61702;SDS011;47622;47.726;3.298;2023-12-14T02:22:53;4.55;;;2.53;;
61702;SDS011;47622;47.726;3.298;2023-12-14T02:25:20;4.90;;;2.75;;
61702;SDS011;47622;47.726;3.298;2023-12-14T02:27:47;3.78;;;2.70;;
61702;SDS011;47622;47.726;3.298;2023-12-14T02:30:13;3.95;;;2.40;;
61702;SDS011;47622;47.726;3.298;2023-12-14T02:32:39;3.90;;;2.42;;
61702;SDS011;47622;47.726;3.298;2023-12-14T02:35:05;3.63;;;2.60;;
61702;SDS011;47622;47.726;3.298;2023-12-14T02:37:31;2.83;;;2.33;;
61702;SDS011;47622;47.726;3.298;2023-12-14T02:39:58;3.85;;;2.17;;
61702;SDS011;47622;47.726;3.298;2023-12-14T02:42:24;2.70;;;2.30;;
61702;SDS011;47622;47.726;3.298;2023-12-14T02:44:49;2.47;;;2.28;;
61702;SDS011;47622;47.726;3.298;2023-12-14T02:47:15;2.40;;;2.20;;
61702;SDS011;47622;47.726;3.298;2023-12-14T02:49:41;2.85;;;2.45;;
61702;SDS011;47622;47.726;3.298;2023-12-14T02:52:06;4.53;;;2.85;;
61702;SDS011;47622;47.726;3.298;2023-12-14T02:54:32;5.25;;;1.92;;
61702;SDS011;47622;47.726;3.298;2023-12-14T02:56:57;2.10;;;1.92;;
61702;SDS011;47622;47.726;3.298;2023-12-14T02:59:23;2.35;;;2.13;;
61702;SDS011;47622;47.726;3.298;2023-12-14T03:01:48;1.88;;;1.77;;
61702;SDS011;47622;47.726;3.298;2023-12-14T03:04:14;2.00;;;1.70;;
61702;SDS011;47622;47.726;3.298;2023-12-14T03:06:39;3.80;;;2.20;;
61702;SDS011;47622;47.726;3.298;2023-12-14T03:09:05;7.00;;;2.08;;
61702;SDS011;47622;47.726;3.298;2023-12-14T03:11:30;2.67;;;1.92;;
61702;SDS011;47622;47.726;3.298;2023-12-14T03:13:56;3.83;;;1.90;;
61702;SDS011;47622;47.726;3.298;2023-12-14T03:16:21;2.72;;;2.17;;
61702;SDS011;47622;47.726;3.298;2023-12-14T03:18:47;3.38;;;2.22;;
61702;SDS011;47622;47.726;3.298;2023-12-14T03:21:17;2.97;;;2.40;;
61702;SDS011;47622;47.726;3.298;2023-12-14T03:23:43;2.88;;;2.15;;
61702;SDS011;47622;47.726;3.298;2023-12-14T03:26:08;4.30;;;2.10;;
61702;SDS011;47622;47.726;3.298;2023-12-14T03:28:34;2.17;;;1.98;;
61702;SDS011;47622;47.726;3.298;2023-12-14T03:31:00;3.30;;;2.60;;
61702;SDS011;47622;47.726;3.298;2023-12-14T03:33:25;4.10;;;2.90;;
61702;SDS011;47622;47.726;3.298;2023-12-14T03:35:51;6.30;;;2.65;;
61702;SDS011;47622;47.726;3.298;2023-12-14T03:38:16;4.88;;;2.80;;
61702;SDS011;47622;47.726;3.298;2023-12-14T03:40:42;4.10;;;2.70;;
61702;SDS011;47622;47.726;3.298;2023-12-14T03:43:08;5.05;;;2.63;;
61702;SDS011;47622;47.726;3.298;2023-12-14T03:45:33;7.93;;;2.80;;
61702;SDS011;47622;47.726;3.298;2023-12-14T03:47:59;5.65;;;2.92;;
61702;SDS011;47622;47.726;3.298;2023-12-14T03:50:24;8.57;;;3.17;;
61702;SDS011;47622;47.726;3.298;2023-12-14T03:52:50;4.45;;;3.25;;
61702;SDS011;47622;47.726;3.298;2023-12-14T03:55:15;5.75;;;3.22;;
61702;SDS011;47622;47.726;3.298;2023-12-14T03:57:41;8.05;;;3.03;;
61702;SDS011;47622;47.726;3.298;2023-12-14T04:00:09;7.20;;;2.92;;
61702;SDS011;47622;47.726;3.298;2023-12-14T04:02:39;4.35;;;2.70;;
61702;SDS011;47622;47.726;3.298;2023-12-14T04:05:08;12.55;;;3.50;;
61702;SDS011;47622;47.726;3.298;2023-12-14T04:07:38;6.35;;;2.97;;
61702;SDS011;47622;47.726;3.298;2023-12-14T04:10:14;7.53;;;2.83;;
61702;SDS011;47622;47.726;3.298;2023-12-14T04:12:40;3.97;;;2.95;;
61702;SDS011;47622;47.726;3.298;2023-12-14T04:15:07;5.25;;;3.03;;
61702;SDS011;47622;47.726;3.298;2023-12-14T04:17:34;6.97;;;2.80;;
61702;SDS011;47622;47.726;3.298;2023-12-14T04:20:00;5.20;;;2.75;;
61702;SDS011;47622;47.726;3.298;2023-12-14T04:22:28;4.90;;;2.85;;
61702;SDS011;47622;47.726;3.298;2023-12-14T04:24:54;9.35;;;3.10;;
61702;SDS011;47622;47.726;3.298;2023-12-14T04:27:19;4.80;;;2.75;;
61702;SDS011;47622;47.726;3.298;2023-12-14T04:29:45;7.53;;;2.95;;
61702;SDS011;47622;47.726;3.298;2023-12-14T04:32:11;3.45;;;2.00;;
61702;SDS011;47622;47.726;3.298;2023-12-14T04:34:36;6.50;;;2.22;;
61702;SDS011;47622;47.726;3.298;2023-12-14T04:37:02;6.72;;;2.65;;
61702;SDS011;47622;47.726;3.298;2023-12-14T04:39:28;6.72;;;2.88;;
61702;SDS011;47622;47.726;3.298;2023-12-14T04:41:53;6.25;;;2.53;;
61702;SDS011;47622;47.726;3.298;2023-12-14T04:44:19;4.32;;;2.33;;
61702;SDS011;47622;47.726;3.298;2023-12-14T04:46:46;7.30;;;2.63;;
61702;SDS011;47622;47.726;3.298;2023-12-14T04:49:15;7.65;;;2.17;;
61702;SDS011;47622;47.726;3.298;2023-12-14T04:51:42;5.82;;;3.67;;
61702;SDS011;47622;47.726;3.298;2023-12-14T04:54:08;3.42;;;2.50;;
61702;SDS011;47622;47.726;3.298;2023-12-14T04:56:33;8.50;;;2.78;;
61702;SDS011;47622;47.726;3.298;2023-12-14T04:58:59;4.65;;;2.38;;
61702;SDS011;47622;47.726;3.298;2023-12-14T05:01:25;7.07;;;3.10;;
61702;SDS011;47622;47.726;3.298;2023-12-14T05:03:53;5.47;;;4.10;;
61702;SDS011;47622;47.726;3.298;2023-12-14T05:06:20;6.63;;;2.75;;
61702;SDS011;47622;47.726;3.298;2023-12-14T05:08:45;4.93;;;2.80;;
61702;SDS011;47622;47.726;3.298;2023-12-14T05:11:12;7.45;;;3.25;;
61702;SDS011;47622;47.726;3.298;2023-12-14T05:13:39;9.13;;;2.75;;
61702;SDS011;47622;47.726;3.298;2023-12-14T05:16:05;5.57;;;2.70;;
61702;SDS011;47622;47.726;3.298;2023-12-14T05:18:30;8.52;;;3.15;;
61702;SDS011;47622;47.726;3.298;2023-12-14T05:20:56;4.13;;;2.47;;
61702;SDS011;47622;47.726;3.298;2023-12-14T05:23:21;5.97;;;2.65;;
61702;SDS011;47622;47.726;3.298;2023-12-14T05:25:47;9.75;;;3.47;;
61702;SDS011;47622;47.726;3.298;2023-12-14T05:28:12;5.18;;;3.05;;
61702;SDS011;47622;47.726;3.298;2023-12-14T05:30:38;3.47;;;2.60;;
61702;SDS011;47622;47.726;3.298;2023-12-14T05:33:03;6.53;;;2.97;;
61702;SDS011;47622;47.726;3.298;2023-12-14T05:35:29;8.38;;;2.80;;
61702;SDS011;47622;47.726;3.298;2023-12-14T05:37:55;5.30;;;3.42;;
61702;SDS011;47622;47.726;3.298;2023-12-14T05:40:21;4.55;;;2.67;;
61702;SDS011;47622;47.726;3.298;2023-12-14T05:42:46;4.70;;;2.78;;
61702;SDS011;47622;47.726;3.298;2023-12-14T05:45:12;8.50;;;2.72;;
61702;SDS011;47622;47.726;3.298;2023-12-14T05:47:38;3.17;;;2.47;;
61702;SDS011;47622;47.726;3.298;2023-12-14T05:50:03;6.35;;;3.00;;
61702;SDS011;47622;47.726;3.298;2023-12-14T05:52:29;3.75;;;2.90;;
61702;SDS011;47622;47.726;3.298;2023-12-14T05:54:55;4.32;;;2.55;;
61702;SDS011;47622;47.726;3.298;2023-12-14T05:57:21;3.95;;;2.95;;
61702;SDS011;47622;47.726;3.298;2023-12-14T05:59:50;4.55;;;2.70;;
61702;SDS011;47622;47.726;3.298;2023-12-14T06:02:15;5.90;;;2.95;;
61702;SDS011;47622;47.726;3.298;2023-12-14T06:04:41;5.60;;;3.13;;
61702;SDS011;47622;47.726;3.298;2023-12-14T06:07:06;10.23;;;3.47;;
61702;SDS011;47622;47.726;3.298;2023-12-14T06:09:32;6.38;;;3.72;;
61702;SDS011;47622;47.726;3.298;2023-12-14T06:12:03;6.90;;;4.13;;
61702;SDS011;47622;47.726;3.298;2023-12-14T06:14:30;8.77;;;4.60;;
61702;SDS011;47622;47.726;3.298;2023-12-14T06:16:55;5.95;;;4.10;;
61702;SDS011;47622;47.726;3.298;2023-12-14T06:19:21;7.50;;;4.38;;
61702;SDS011;47622;47.726;3.298;2023-12-14T06:21:47;6.63;;;4.65;;
61702;SDS011;47622;47.726;3.298;2023-12-14T06:24:13;7.30;;;4.35;;
61702;SDS011;47622;47.726;3.298;2023-12-14T06:26:42;7.63;;;4.45;;
61702;SDS011;47622;47.726;3.298;2023-12-14T06:29:08;8.05;;;4.35;;
61702;SDS011;47622;47.726;3.298;2023-12-14T06:31:34;6.68;;;4.45;;
61702;SDS011;47622;47.726;3.298;2023-12-14T06:34:00;7.50;;;4.80;;
61702;SDS011;47622;47.726;3.298;2023-12-14T06:36:29;7.50;;;4.25;;
61702;SDS011;47622;47.726;3.298;2023-12-14T06:38:57;5.55;;;4.00;;
61702;SDS011;47622;47.726;3.298;2023-12-14T06:41:23;7.97;;;4.25;;
61702;SDS011;47622;47.726;3.298;2023-12-14T06:43:49;6.82;;;3.60;;
61702;SDS011;47622;47.726;3.298;2023-12-14T06:46:15;5.47;;;3.58;;
61702;SDS011;47622;47.726;3.298;2023-12-14T06:48:41;7.63;;;3.75;;
61702;SDS011;47622;47.726;3.298;2023-12-14T06:51:07;5.90;;;3.42;;
61702;SDS011;47622;47.726;3.298;2023-12-14T06:53:33;8.07;;;3.50;;
61702;SDS011;47622;47.726;3.298;2023-12-14T06:55:59;5.22;;;3.35;;
61702;SDS011;47622;47.726;3.298;2023-12-14T06:58:24;6.10;;;3.00;;
61702;SDS011;47622;47.726;3.298;2023-12-14T07:00:52;6.85;;;3.38;;
61702;SDS011;47622;47.726;3.298;2023-12-14T07:03:17;6.43;;;3.35;;
61702;SDS011;47622;47.726;3.298;2023-12-14T07:05:43;7.13;;;3.22;;
61702;SDS011;47622;47.726;3.298;2023-12-14T07:08:08;5.43;;;3.35;;
61702;SDS011;47622;47.726;3.298;2023-12-14T07:10:34;6.10;;;3.33;;
61702;SDS011;47622;47.726;3.298;2023-12-14T07:12:59;5.43;;;3.20;;
61702;SDS011;47622;47.726;3.298;2023-12-14T07:15:25;4.93;;;3.38;;
61702;SDS011;47622;47.726;3.298;2023-12-14T07:17:50;7.80;;;3.17;;
61702;SDS011;47622;47.726;3.298;2023-12-14T07:20:16;3.70;;;2.60;;
61702;SDS011;47622;47.726;3.298;2023-12-14T07:22:41;4.28;;;2.80;;
61702;SDS011;47622;47.726;3.298;2023-12-14T07:25:07;4.25;;;2.88;;
61702;SDS011;47622;47.726;3.298;2023-12-14T07:27:33;3.25;;;2.58;;
61702;SDS011;47622;47.726;3.298;2023-12-14T07:29:59;3.03;;;2.25;;
61702;SDS011;47622;47.726;3.298;2023-12-14T07:32:25;4.18;;;2.35;;
61702;SDS011;47622;47.726;3.298;2023-12-14T07:34:52;2.55;;;2.00;;
61702;SDS011;47622;47.726;3.298;2023-12-14T07:37:17;3.97;;;2.22;;
61702;SDS011;47622;47.726;3.298;2023-12-14T07:39:43;3.05;;;2.55;;
61702;SDS011;47622;47.726;3.298;2023-12-14T07:42:08;3.88;;;2.90;;
61702;SDS011;47622;47.726;3.298;2023-12-14T07:44:34;6.93;;;3.38;;
61702;SDS011;47622;47.726;3.298;2023-12-14T07:47:00;5.43;;;2.72;;
61702;SDS011;47622;47.726;3.298;2023-12-14T07:49:27;5.68;;;2.63;;
61702;SDS011;47622;47.726;3.298;2023-12-14T07:51:53;3.53;;;2.80;;
61702;SDS011;47622;47.726;3.298;2023-12-14T07:54:18;6.80;;;3.20;;
61702;SDS011;47622;47.726;3.298;2023-12-14T07:56:44;4.60;;;3.35;;
61702;SDS011;47622;47.726;3.298;2023-12-14T07:59:10;5.70;;;4.13;;
61702;SDS011;47622;47.726;3.298;2023-12-14T08:01:38;6.05;;;3.20;;
61702;SDS011;47622;47.726;3.298;2023-12-14T08:04:04;4.32;;;3.50;;
61702;SDS011;47622;47.726;3.298;2023-12-14T08:06:29;6.13;;;3.40;;
61702;SDS011;47622;47.726;3.298;2023-12-14T08:08:55;4.28;;;3.38;;
61702;SDS011;47622;47.726;3.298;2023-12-14T08:11:23;4.72;;;3.38;;
61702;SDS011;47622;47.726;3.298;2023-12-14T08:13:49;4.72;;;3.25;;
61702;SDS011;47622;47.726;3.298;2023-12-14T08:16:15;7.30;;;3.75;;
61702;SDS011;47622;47.726;3.298;2023-12-14T08:18:42;5.47;;;3.83;;
61702;SDS011;47622;47.726;3.298;2023-12-14T08:21:09;6.95;;;4.03;;
61702;SDS011;47622;47.726;3.298;2023-12-14T08:23:35;7.15;;;4.28;;
61702;SDS011;47622;47.726;3.298;2023-12-14T08:26:01;10.52;;;5.00;;
61702;SDS011;47622;47.726;3.298;2023-12-14T08:28:26;8.32;;;5.25;;
61702;SDS011;47622;47.726;3.298;2023-12-14T08:30:52;12.18;;;6.15;;
61702;SDS011;47622;47.726;3.298;2023-12-14T08:33:17;14.10;;;5.53;;
61702;SDS011;47622;47.726;3.298;2023-12-14T08:35:43;8.20;;;5.53;;
61702;SDS011;47622;47.726;3.298;2023-12-14T08:38:09;8.63;;;5.72;;
61702;SDS011;47622;47.726;3.298;2023-12-14T08:40:36;10.40;;;6.18;;
61702;SDS011;47622;47.726;3.298;2023-12-14T08:43:02;10.57;;;6.90;;
61702;SDS011;47622;47.726;3.298;2023-12-14T08:45:28;13.00;;;6.43;;
61702;SDS011;47622;47.726;3.298;2023-12-14T08:47:54;11.88;;;7.07;;
61702;SDS011;47622;47.726;3.298;2023-12-14T08:50:19;13.43;;;7.43;;
61702;SDS011;47622;47.726;3.298;2023-12-14T08:52:45;15.13;;;7.63;;
61702;SDS011;47622;47.726;3.298;2023-12-14T08:55:11;14.02;;;8.20;;
61702;SDS011;47622;47.726;3.298;2023-12-14T08:57:36;13.70;;;8.27;;
61702;SDS011;47622;47.726;3.298;2023-12-14T09:00:02;13.57;;;7.97;;
61702;SDS011;47622;47.726;3.298;2023-12-14T09:02:29;15.52;;;8.48;;
61702;SDS011;47622;47.726;3.298;2023-12-14T09:04:55;15.43;;;8.48;;
61702;SDS011;47622;47.726;3.298;2023-12-14T09:07:21;15.43;;;7.93;;
61702;SDS011;47622;47.726;3.298;2023-12-14T09:09:46;13.85;;;8.02;;
61702;SDS011;47622;47.726;3.298;2023-12-14T09:12:12;12.02;;;7.22;;
61702;SDS011;47622;47.726;3.298;2023-12-14T09:14:37;16.48;;;7.50;;
61702;SDS011;47622;47.726;3.298;2023-12-14T09:17:03;13.45;;;7.40;;
61702;SDS011;47622;47.726;3.298;2023-12-14T09:19:31;20.50;;;8.45;;
61702;SDS011;47622;47.726;3.298;2023-12-14T09:21:57;12.38;;;7.53;;
61702;SDS011;47622;47.726;3.298;2023-12-14T09:24:23;19.65;;;7.57;;
61702;SDS011;47622;47.726;3.298;2023-12-14T09:26:49;21.60;;;7.25;;
61702;SDS011;47622;47.726;3.298;2023-12-14T09:29:14;16.00;;;7.75;;
61702;SDS011;47622;47.726;3.298;2023-12-14T09:31:41;14.50;;;6.78;;
61702;SDS011;47622;47.726;3.298;2023-12-14T09:34:08;12.93;;;7.35;;
61702;SDS011;47622;47.726;3.298;2023-12-14T09:36:34;17.15;;;6.97;;
61702;SDS011;47622;47.726;3.298;2023-12-14T09:39:00;12.50;;;7.63;;
61702;SDS011;47622;47.726;3.298;2023-12-14T09:41:25;14.52;;;6.65;;
61702;SDS011;47622;47.726;3.298;2023-12-14T09:43:51;15.05;;;6.65;;
61702;SDS011;47622;47.726;3.298;2023-12-14T09:46:17;19.48;;;7.38;;
61702;SDS011;47622;47.726;3.298;2023-12-14T09:48:45;12.18;;;6.70;;
61702;SDS011;47622;47.726;3.298;2023-12-14T09:51:12;13.63;;;6.18;;
61702;SDS011;47622;47.726;3.298;2023-12-14T09:53:39;11.15;;;6.18;;
61702;SDS011;47622;47.726;3.298;2023-12-14T09:56:05;11.15;;;6.30;;
61702;SDS011;47622;47.726;3.298;2023-12-14T09:58:31;16.27;;;6.30;;
61702;SDS011;47622;47.726;3.298;2023-12-14T10:00:58;15.77;;;7.15;;
61702;SDS011;47622;47.726;3.298;2023-12-14T10:03:26;12.95;;;5.88;;
61702;SDS011;47622;47.726;3.298;2023-12-14T10:05:54;10.05;;;6.10;;
61702;SDS011;47622;47.726;3.298;2023-12-14T10:08:21;12.65;;;6.03;;
61702;SDS011;47622;47.726;3.298;2023-12-14T10:10:48;13.63;;;6.15;;
61702;SDS011;47622;47.726;3.298;2023-12-14T10:13:16;14.15;;;5.97;;
61702;SDS011;47622;47.726;3.298;2023-12-14T10:15:42;11.75;;;5.93;;
61702;SDS011;47622;47.726;3.298;2023-12-14T10:18:21;18.27;;;6.00;;
61702;SDS011;47622;47.726;3.298;2023-12-14T10:20:48;11.32;;;5.65;;
61702;SDS011;47622;47.726;3.298;2023-12-14T10:23:14;8.60;;;4.85;;
61702;SDS011;47622;47.726;3.298;2023-12-14T10:25:40;10.55;;;5.65;;
61702;SDS011;47622;47.726;3.298;2023-12-14T10:28:07;11.73;;;5.20;;
61702;SDS011;47622;47.726;3.298;2023-12-14T10:30:33;10.25;;;4.88;;
61702;SDS011;47622;47.726;3.298;2023-12-14T10:32:59;11.18;;;5.53;;
61702;SDS011;47622;47.726;3.298;2023-12-14T10:35:25;12.40;;;4.60;;
61702;SDS011;47622;47.726;3.298;2023-12-14T10:37:51;7.75;;;5.03;;
61702;SDS011;47622;47.726;3.298;2023-12-14T10:40:17;8.93;;;5.25;;
61702;SDS011;47622;47.726;3.298;2023-12-14T10:42:43;6.20;;;3.97;;
61702;SDS011;47622;47.726;3.298;2023-12-14T10:45:13;10.85;;;4.53;;
61702;SDS011;47622;47.726;3.298;2023-12-14T10:47:45;12.25;;;4.50;;
61702;SDS011;47622;47.726;3.298;2023-12-14T10:50:12;8.98;;;4.65;;
61702;SDS011;47622;47.726;3.298;2023-12-14T10:52:41;7.25;;;3.88;;
61702;SDS011;47622;47.726;3.298;2023-12-14T10:55:29;7.50;;;4.25;;
61702;SDS011;47622;47.726;3.298;2023-12-14T10:58:09;9.52;;;4.43;;
61702;SDS011;47622;47.726;3.298;2023-12-14T11:00:35;7.78;;;4.30;;
61702;SDS011;47622;47.726;3.298;2023-12-14T11:03:03;8.50;;;4.10;;
61702;SDS011;47622;47.726;3.298;2023-12-14T11:05:31;8.25;;;4.93;;
61702;SDS011;47622;47.726;3.298;2023-12-14T11:08:02;12.90;;;5.57;;
61702;SDS011;47622;47.726;3.298;2023-12-14T11:10:38;13.00;;;4.88;;
61702;SDS011;47622;47.726;3.298;2023-12-14T11:13:09;12.30;;;5.43;;
61702;SDS011;47622;47.726;3.298;2023-12-14T11:15:37;9.65;;;5.25;;
61702;SDS011;47622;47.726;3.298;2023-12-14T11:25:51;9.40;;;4.88;;
61702;SDS011;47622;47.726;3.298;2023-12-14T11:28:18;11.63;;;5.45;;
61702;SDS011;47622;47.726;3.298;2023-12-14T11:30:45;15.88;;;5.95;;
61702;SDS011;47622;47.726;3.298;2023-12-14T11:33:12;15.35;;;5.68;;
61702;SDS011;47622;47.726;3.298;2023-12-14T11:35:38;15.93;;;6.28;;
61702;SDS011;47622;47.726;3.298;2023-12-14T11:38:03;9.88;;;4.90;;
61702;SDS011;47622;47.726;3.298;2023-12-14T11:40:44;12.70;;;4.67;;
61702;SDS011;47622;47.726;3.298;2023-12-14T11:43:10;9.00;;;4.55;;
61702;SDS011;47622;47.726;3.298;2023-12-14T11:45:36;10.98;;;4.53;;
61702;SDS011;47622;47.726;3.298;2023-12-14T11:48:03;12.77;;;5.15;;
61702;SDS011;47622;47.726;3.298;2023-12-14T11:50:31;9.93;;;4.75;;
61702;SDS011;47622;47.726;3.298;2023-12-14T11:52:59;10.30;;;4.60;;
61702;SDS011;47622;47.726;3.298;2023-12-14T11:55:26;11.32;;;4.88;;
61702;SDS011;47622;47.726;3.298;2023-12-14T11:57:52;8.15;;;4.20;;
61702;SDS011;47622;47.726;3.298;2023-12-14T12:00:18;9.18;;;3.85;;
61702;SDS011;47622;47.726;3.298;2023-12-14T12:02:49;9.23;;;3.60;;
61702;SDS011;47622;47.726;3.298;2023-12-14T12:05:15;4.07;;;2.50;;
61702;SDS011;47622;47.726;3.298;2023-12-14T12:07:44;3.47;;;2.72;;
61702;SDS011;47622;47.726;3.298;2023-12-14T12:10:10;4.25;;;2.72;;
61702;SDS011;47622;47.726;3.298;2023-12-14T12:12:36;4.47;;;2.97;;
61702;SDS011;47622;47.726;3.298;2023-12-14T12:15:04;5.55;;;3.38;;
61702;SDS011;47622;47.726;3.298;2023-12-14T12:17:30;5.03;;;3.28;;
61702;SDS011;47622;47.726;3.298;2023-12-14T12:20:02;10.10;;;3.70;;
61702;SDS011;47622;47.726;3.298;2023-12-14T12:22:31;5.38;;;3.72;;
61702;SDS011;47622;47.726;3.298;2023-12-14T12:24:57;7.20;;;4.00;;
61702;SDS011;47622;47.726;3.298;2023-12-14T12:27:23;8.55;;;3.60;;
61702;SDS011;47622;47.726;3.298;2023-12-14T12:29:49;8.95;;;4.25;;
61702;SDS011;47622;47.726;3.298;2023-12-14T12:32:18;7.53;;;3.13;;
61702;SDS011;47622;47.726;3.298;2023-12-14T12:34:44;6.75;;;4.32;;
61702;SDS011;47622;47.726;3.298;2023-12-14T12:37:09;6.50;;;3.88;;
61702;SDS011;47622;47.726;3.298;2023-12-14T12:39:35;8.40;;;4.30;;
61702;SDS011;47622;47.726;3.298;2023-12-14T12:42:00;8.38;;;4.13;;
61702;SDS011;47622;47.726;3.298;2023-12-14T12:44:26;8.68;;;4.30;;
61702;SDS011;47622;47.726;3.298;2023-12-14T12:46:52;5.80;;;3.97;;
61702;SDS011;47622;47.726;3.298;2023-12-14T12:49:22;7.15;;;4.28;;
61702;SDS011;47622;47.726;3.298;2023-12-14T12:51:47;5.85;;;3.95;;
61702;SDS011;47622;47.726;3.298;2023-12-14T12:54:13;8.57;;;3.75;;
61702;SDS011;47622;47.726;3.298;2023-12-14T12:56:38;6.28;;;3.72;;
61702;SDS011;47622;47.726;3.298;2023-12-14T12:59:04;6.55;;;3.38;;
61702;SDS011;47622;47.726;3.298;2023-12-14T13:01:29;6.43;;;3.63;;
61702;SDS011;47622;47.726;3.298;2023-12-14T13:03:55;5.93;;;3.78;;
61702;SDS011;47622;47.726;3.298;2023-12-14T13:06:24;7.20;;;3.10;;
61702;SDS011;47622;47.726;3.298;2023-12-14T13:08:53;7.28;;;4.22;;
61702;SDS011;47622;47.726;3.298;2023-12-14T13:11:18;5.47;;;3.10;;
61702;SDS011;47622;47.726;3.298;2023-12-14T13:13:44;5.53;;;3.00;;
61702;SDS011;47622;47.726;3.298;2023-12-14T13:16:10;3.40;;;2.53;;
61702;SDS011;47622;47.726;3.298;2023-12-14T13:18:39;5.72;;;3.10;;
61702;SDS011;47622;47.726;3.298;2023-12-14T13:21:04;5.85;;;3.20;;
61702;SDS011;47622;47.726;3.298;2023-12-14T13:23:30;8.10;;;3.50;;
61702;SDS011;47622;47.726;3.298;2023-12-14T13:25:55;7.47;;;3.67;;
61702;SDS011;47622;47.726;3.298;2023-12-14T13:28:21;7.15;;;3.78;;
61702;SDS011;47622;47.726;3.298;2023-12-14T13:30:46;5.90;;;3.40;;
61702;SDS011;47622;47.726;3.298;2023-12-14T13:33:12;5.55;;;3.55;;
61702;SDS011;47622;47.726;3.298;2023-12-14T13:35:38;6.05;;;3.75;;
61702;SDS011;47622;47.726;3.298;2023-12-14T13:38:04;7.13;;;3.88;;
61702;SDS011;47622;47.726;3.298;2023-12-14T13:40:29;4.55;;;3.08;;
61702;SDS011;47622;47.726;3.298;2023-12-14T13:42:55;7.15;;;3.58;;
61702;SDS011;47622;47.726;3.298;2023-12-14T13:45:24;9.93;;;3.28;;
61702;SDS011;47622;47.726;3.298;2023-12-14T13:47:51;5.18;;;2.90;;
61702;SDS011;47622;47.726;3.298;2023-12-14T13:50:16;8.93;;;2.72;;
61702;SDS011;47622;47.726;3.298;2023-12-14T13:52:42;8.70;;;3.20;;
61702;SDS011;47622;47.726;3.298;2023-12-14T13:55:08;7.40;;;2.88;;
61702;SDS011;47622;47.726;3.298;2023-12-14T13:57:33;6.82;;;3.10;;
61702;SDS011;47622;47.726;3.298;2023-12-14T13:59:59;8.30;;;3.38;;
61702;SDS011;47622;47.726;3.298;2023-12-14T14:02:24;7.45;;;2.97;;
61702;SDS011;47622;47.726;3.298;2023-12-14T14:04:52;6.10;;;2.42;;
61702;SDS011;47622;47.726;3.298;2023-12-14T14:07:18;4.28;;;2.40;;
61702;SDS011;47622;47.726;3.298;2023-12-14T14:09:43;5.03;;;2.53;;
61702;SDS011;47622;47.726;3.298;2023-12-14T14:12:09;6.30;;;2.70;;
61702;SDS011;47622;47.726;3.298;2023-12-14T14:14:35;5.20;;;3.05;;
61702;SDS011;47622;47.726;3.298;2023-12-14T14:17:00;4.10;;;2.20;;
61702;SDS011;47622;47.726;3.298;2023-12-14T14:19:27;5.53;;;2.20;;
61702;SDS011;47622;47.726;3.298;2023-12-14T14:21:52;4.88;;;2.42;;
61702;SDS011;47622;47.726;3.298;2023-12-14T14:24:18;5.63;;;2.50;;
61702;SDS011;47622;47.726;3.298;2023-12-14T14:26:43;5.60;;;2.55;;
61702;SDS011;47622;47.726;3.298;2023-12-14T14:29:10;7.00;;;2.72;;
61702;SDS011;47622;47.726;3.298;2023-12-14T14:31:36;12.18;;;3.00;;
61702;SDS011;47622;47.726;3.298;2023-12-14T14:34:02;8.77;;;2.90;;
61702;SDS011;47622;47.726;3.298;2023-12-14T14:36:28;4.68;;;2.60;;
61702;SDS011;47622;47.726;3.298;2023-12-14T14:38:53;7.78;;;2.75;;
61702;SDS011;47622;47.726;3.298;2023-12-14T14:41:20;6.63;;;2.70;;
61702;SDS011;47622;47.726;3.298;2023-12-14T14:43:46;8.50;;;2.88;;
61702;SDS011;47622;47.726;3.298;2023-12-14T14:46:12;6.75;;;2.90;;
61702;SDS011;47622;47.726;3.298;2023-12-14T14:48:37;4.55;;;2.70;;
61702;SDS011;47622;47.726;3.298;2023-12-14T14:51:03;8.45;;;2.90;;